createdAt,value
2023-12-08T00:04:47.495Z,0.90
2023-12-08T00:09:50.271Z,0.90
2023-12-08T00:14:52.618Z,0.90
2023-12-08T00:19:55.096Z,0.90
2023-12-08T00:24:57.449Z,1.00
2023-12-08T00:29:59.726Z,1.00
2023-12-08T00:35:02.402Z,1.00
2023-12-08T00:40:06.935Z,1.10
2023-12-08T00:45:10.268Z,1.10
2023-12-08T00:50:13.203Z,1.10
2023-12-08T00:55:15.817Z,1.10
2023-12-08T01:00:19.565Z,1.20
2023-12-08T01:05:22.304Z,1.20
2023-12-08T01:10:25.087Z,1.20
2023-12-08T01:15:27.732Z,1.30
2023-12-08T01:20:30.354Z,1.20
2023-12-08T01:25:32.845Z,1.30
2023-12-08T01:30:35.816Z,1.20
2023-12-08T01:35:38.421Z,1.30
2023-12-08T01:40:42.219Z,1.20
2023-12-08T01:45:45.014Z,1.20
2023-12-08T01:50:47.877Z,1.20
2023-12-08T01:55:50.579Z,1.20
2023-12-08T02:00:54.746Z,1.20
2023-12-08T02:06:01.074Z,1.30
2023-12-08T02:11:04.349Z,1.30
2023-12-08T02:16:12.890Z,1.20
2023-12-08T02:21:16.602Z,1.20
2023-12-08T02:26:21.338Z,1.20
2023-12-08T02:31:30.935Z,1.20
2023-12-08T02:36:36.110Z,1.20
2023-12-08T02:41:38.971Z,1.20
2023-12-08T02:46:42.021Z,1.30
2023-12-08T02:51:44.901Z,1.30
2023-12-08T02:56:48.137Z,1.30
2023-12-08T03:01:51.002Z,1.30
2023-12-08T03:06:53.706Z,1.30
2023-12-08T03:11:59.678Z,1.20
2023-12-08T03:17:02.473Z,1.30
2023-12-08T03:22:05.359Z,1.30
2023-12-08T03:27:08.913Z,1.30
2023-12-08T03:32:11.559Z,1.30
2023-12-08T03:37:14.130Z,1.30
2023-12-08T03:42:16.747Z,1.30
2023-12-08T03:47:20.390Z,1.20
2023-12-08T03:52:22.822Z,1.30
2023-12-08T03:57:25.670Z,1.30
2023-12-08T04:02:28.579Z,1.20
2023-12-08T04:07:31.516Z,1.20
2023-12-08T04:12:37.476Z,1.20
2023-12-08T04:17:40.329Z,1.30
2023-12-08T04:22:43.123Z,1.30
2023-12-08T04:27:46.151Z,1.30
2023-12-08T04:32:52.617Z,1.30
2023-12-08T04:37:55.535Z,1.30
2023-12-08T04:42:58.362Z,1.30
2023-12-08T04:48:01.545Z,1.30
2023-12-08T04:53:04.449Z,1.30
2023-12-08T04:58:09.362Z,1.30
2023-12-08T05:03:16.330Z,1.30
2023-12-08T05:08:27.806Z,1.30
2023-12-08T05:13:33.687Z,1.30
2023-12-08T05:18:37.166Z,1.30
2023-12-08T05:23:40.147Z,1.30
2023-12-08T05:28:52.026Z,1.30
2023-12-08T05:34:06.595Z,1.30
2023-12-08T05:39:10.909Z,1.30
2023-12-08T05:44:15.409Z,1.40
2023-12-08T05:49:24.098Z,1.40
2023-12-08T05:54:39.087Z,1.30
2023-12-08T05:59:50.150Z,1.30
2023-12-08T06:04:52.962Z,1.40
2023-12-08T06:09:58.847Z,1.40
2023-12-08T06:15:02.485Z,1.40
2023-12-08T06:20:14.599Z,1.40
2023-12-08T06:25:24.784Z,1.40
2023-12-08T06:30:27.107Z,1.40
2023-12-08T06:35:43.599Z,1.40
2023-12-08T06:40:45.647Z,1.30
2023-12-08T06:45:47.851Z,1.40
2023-12-08T06:50:49.920Z,1.30
2023-12-08T06:55:52.027Z,1.20
2023-12-08T07:00:55.346Z,1.20
2023-12-08T07:05:57.696Z,1.10
2023-12-08T07:10:59.752Z,1.10
2023-12-08T07:16:01.849Z,1.00
2023-12-08T07:21:05.319Z,1.10
2023-12-08T07:26:07.365Z,1.20
2023-12-08T07:31:10.054Z,1.10
2023-12-08T07:36:12.169Z,1.00
2023-12-08T07:41:14.354Z,1.00
2023-12-08T07:46:16.436Z,1.00
2023-12-08T07:51:19.336Z,0.90
2023-12-08T07:56:23.595Z,0.90
2023-12-08T08:01:25.708Z,1.00
2023-12-08T08:06:28.014Z,1.00
2023-12-08T08:11:30.445Z,1.00
2023-12-08T08:16:35.376Z,1.00
2023-12-08T08:21:37.603Z,1.10
2023-12-08T08:26:44.406Z,1.10
2023-12-08T08:31:46.566Z,1.00
2023-12-08T08:36:48.976Z,1.10
2023-12-08T08:41:51.549Z,1.20
2023-12-08T08:46:53.697Z,1.20
2023-12-08T08:51:55.772Z,1.20
2023-12-08T08:56:57.824Z,1.20
2023-12-08T09:01:59.964Z,1.30
2023-12-08T09:07:02.122Z,1.30
2023-12-08T09:12:04.917Z,1.40
2023-12-08T09:17:07.482Z,1.40
2023-12-08T09:22:09.556Z,1.50
2023-12-08T09:32:14.400Z,1.60
2023-12-08T09:37:26.996Z,1.60
2023-12-08T09:42:43.536Z,1.50
2023-12-08T09:47:50.612Z,1.70
2023-12-08T09:52:55.497Z,1.80
2023-12-08T09:57:59.903Z,1.80
2023-12-08T10:03:02.713Z,1.80
2023-12-08T10:08:05.240Z,1.80
2023-12-08T10:13:07.928Z,1.80
2023-12-08T10:18:22.756Z,1.70
2023-12-08T10:23:24.911Z,1.70
2023-12-08T10:28:27.072Z,1.70
2023-12-08T10:33:29.307Z,1.70
2023-12-08T10:38:31.920Z,1.60
2023-12-08T10:43:34.047Z,1.60
2023-12-08T10:48:36.676Z,1.70
2023-12-08T10:53:39.400Z,1.70
2023-12-08T10:58:45.813Z,1.80
2023-12-08T11:03:57.773Z,1.90
2023-12-08T11:09:08.684Z,1.90
2023-12-08T11:14:14.723Z,1.90
2023-12-08T11:19:21.106Z,1.90
2023-12-08T11:24:24.061Z,1.90
2023-12-08T11:29:31.753Z,2.10
2023-12-08T11:34:43.536Z,2.20
2023-12-08T11:39:46.053Z,2.30
2023-12-08T11:44:50.160Z,2.40
2023-12-08T11:49:54.593Z,2.50
2023-12-08T11:55:13.471Z,2.40
2023-12-08T12:00:23.499Z,2.40
2023-12-08T12:05:27.882Z,2.40
2023-12-08T12:10:34.169Z,2.50
2023-12-08T12:15:38.332Z,2.40
2023-12-08T12:20:41.217Z,2.50
2023-12-08T12:25:44.222Z,2.50
2023-12-08T12:30:50.200Z,2.60
2023-12-08T12:35:56.762Z,2.50
2023-12-08T12:41:19.776Z,2.60
2023-12-08T12:46:22.182Z,2.70
2023-12-08T12:51:43.908Z,2.60
2023-12-08T12:56:51.475Z,2.60
2023-12-08T13:01:53.692Z,2.70
2023-12-08T13:06:55.827Z,2.70
2023-12-08T13:11:59.487Z,2.80
2023-12-08T13:17:01.707Z,2.80
2023-12-08T13:22:03.936Z,2.90
2023-12-08T13:27:06.950Z,2.80
2023-12-08T13:32:09.246Z,2.80
2023-12-08T13:37:11.366Z,2.80
2023-12-08T13:42:13.705Z,2.70
2023-12-08T13:47:15.852Z,2.70
2023-12-08T13:52:18.004Z,2.60
2023-12-08T13:57:20.131Z,2.50
2023-12-08T14:02:23.295Z,2.50
2023-12-08T14:07:26.880Z,2.50
2023-12-08T14:12:29.197Z,2.40
2023-12-08T14:17:31.631Z,2.30
2023-12-08T14:22:33.942Z,2.30
2023-12-08T14:27:37.672Z,2.20
2023-12-08T14:32:41.920Z,2.30
2023-12-08T14:37:46.039Z,2.30
2023-12-08T14:42:48.255Z,2.20
2023-12-08T14:47:50.711Z,2.20
2023-12-08T14:52:53.747Z,2.20
2023-12-08T14:57:56.022Z,2.20
2023-12-08T15:02:58.269Z,2.10
2023-12-08T15:08:00.443Z,2.10
2023-12-08T15:13:02.491Z,2.10
2023-12-08T15:18:04.705Z,2.10
2023-12-08T15:23:06.890Z,2.10
2023-12-08T15:28:09.004Z,2.20
2023-12-08T15:33:11.254Z,2.20
2023-12-08T15:38:13.801Z,2.20
2023-12-08T15:43:15.946Z,2.20
2023-12-08T15:48:18.107Z,2.20
2023-12-08T15:53:20.184Z,2.10
2023-12-08T15:58:22.196Z,2.20
2023-12-08T16:03:24.322Z,2.20
2023-12-08T16:08:26.801Z,2.20
2023-12-08T16:13:28.936Z,2.20
2023-12-08T16:18:32.642Z,2.20
2023-12-08T16:23:34.802Z,2.20
2023-12-08T16:28:38.816Z,2.10
2023-12-08T16:33:41.122Z,2.20
2023-12-08T16:38:43.519Z,2.20
2023-12-08T16:43:45.774Z,2.30
2023-12-08T16:48:48.304Z,2.30
2023-12-08T16:53:50.786Z,2.30
2023-12-08T16:58:53.057Z,2.40
2023-12-08T17:03:55.200Z,2.40
2023-12-08T17:08:57.301Z,2.50
2023-12-08T17:13:59.397Z,2.40
2023-12-08T17:19:02.361Z,2.40
2023-12-08T17:24:05.217Z,2.40
2023-12-08T17:29:07.788Z,2.40
2023-12-08T17:34:16.493Z,2.40
2023-12-08T17:39:24.106Z,2.40
2023-12-08T17:44:26.489Z,2.50
2023-12-08T17:49:29.355Z,2.50
2023-12-08T17:54:31.432Z,2.50
2023-12-08T17:59:33.507Z,2.60
2023-12-08T18:04:39.552Z,2.50
2023-12-08T18:09:42.537Z,2.50
2023-12-08T18:14:44.952Z,2.50
2023-12-08T18:19:47.133Z,2.60
2023-12-08T18:24:49.251Z,2.60
2023-12-08T18:29:51.670Z,2.60
2023-12-08T18:34:54.059Z,2.60
2023-12-08T18:39:56.629Z,2.60
2023-12-08T18:44:58.748Z,2.70
2023-12-08T18:50:01.145Z,2.70
2023-12-08T18:55:04.995Z,2.60
2023-12-08T19:00:10.214Z,2.70
2023-12-08T19:10:56.106Z,2.70
2023-12-08T19:15:58.240Z,2.70
2023-12-08T19:21:00.277Z,2.80
2023-12-08T19:26:05.953Z,2.80
2023-12-08T19:31:08.780Z,2.80
2023-12-08T19:36:16.150Z,2.80
2023-12-08T19:41:20.585Z,2.90
2023-12-08T19:46:22.804Z,3.00
2023-12-08T19:51:26.121Z,2.90
2023-12-08T19:56:28.348Z,3.00
2023-12-08T20:01:31.003Z,3.00
2023-12-08T20:06:33.132Z,3.00
2023-12-08T20:11:35.448Z,3.10
2023-12-08T20:16:43.245Z,3.10
2023-12-08T20:21:46.067Z,3.20
2023-12-08T20:26:48.937Z,3.20
2023-12-08T20:31:51.482Z,3.20
2023-12-08T20:36:54.051Z,3.20
2023-12-08T20:41:56.498Z,3.30
2023-12-08T20:46:58.920Z,3.20
2023-12-08T20:52:01.918Z,3.30
2023-12-08T20:57:04.320Z,3.40
2023-12-08T21:02:08.089Z,3.30
2023-12-08T21:07:10.642Z,3.30
2023-12-08T21:12:13.440Z,3.40
2023-12-08T21:17:15.745Z,3.40
2023-12-08T21:22:18.403Z,3.50
2023-12-08T21:27:20.858Z,3.50
2023-12-08T21:32:23.322Z,3.50
2023-12-08T21:37:25.643Z,3.60
2023-12-08T21:42:28.047Z,3.70
2023-12-08T21:47:30.522Z,3.80
2023-12-08T21:52:33.473Z,3.80
2023-12-08T21:57:35.561Z,3.90
2023-12-08T22:02:37.937Z,4.00
2023-12-08T22:07:39.982Z,3.90
2023-12-08T22:12:42.279Z,4.10
2023-12-08T22:17:44.974Z,4.10
2023-12-08T22:22:47.239Z,4.10
2023-12-08T22:27:49.550Z,4.20
2023-12-08T22:32:51.993Z,4.20
2023-12-08T22:37:54.861Z,4.30
2023-12-08T22:42:57.223Z,4.20
2023-12-08T22:48:00.618Z,4.20
2023-12-08T22:53:05.320Z,4.30
2023-12-08T22:58:07.474Z,4.50
2023-12-08T23:03:09.750Z,4.70
2023-12-08T23:08:11.880Z,4.90
2023-12-08T23:13:15.678Z,5.00
2023-12-08T23:18:18.873Z,5.10
2023-12-08T23:23:21.079Z,5.20
2023-12-08T23:28:25.949Z,5.40
2023-12-08T23:33:28.275Z,5.40
2023-12-08T23:38:30.564Z,5.40
2023-12-08T23:43:33.479Z,5.40
2023-12-08T23:48:35.710Z,5.40
2023-12-08T23:53:37.833Z,5.40
2023-12-08T23:58:40.331Z,5.40
